sensor_id;sensor_type;location;lat;lon;timestamp;P1;durP1;ratioP1;P2;durP2;ratioP2
51499;SDS011;39101;53.478;6.158;2022-11-13T00:02:11;27.80;;;21.87;;
51499;SDS011;39101;53.478;6.158;2022-11-13T00:04:37;31.33;;;23.23;;
51499;SDS011;39101;53.478;6.158;2022-11-13T00:07:02;28.57;;;23.37;;
51499;SDS011;39101;53.478;6.158;2022-11-13T00:09:28;33.50;;;24.37;;
51499;SDS011;39101;53.478;6.158;2022-11-13T00:11:53;29.90;;;23.83;;
51499;SDS011;39101;53.478;6.158;2022-11-13T00:14:19;31.43;;;24.00;;
51499;SDS011;39101;53.478;6.158;2022-11-13T00:16:45;33.03;;;24.97;;
51499;SDS011;39101;53.478;6.158;2022-11-13T00:19:10;33.43;;;25.10;;
51499;SDS011;39101;53.478;6.158;2022-11-13T00:21:36;35.07;;;26.17;;
51499;SDS011;39101;53.478;6.158;2022-11-13T00:24:02;33.93;;;26.23;;
51499;SDS011;39101;53.478;6.158;2022-11-13T00:26:28;34.67;;;26.17;;
51499;SDS011;39101;53.478;6.158;2022-11-13T00:28:56;33.07;;;25.43;;
51499;SDS011;39101;53.478;6.158;2022-11-13T00:31:23;33.27;;;25.63;;
51499;SDS011;39101;53.478;6.158;2022-11-13T00:33:49;35.00;;;26.70;;
51499;SDS011;39101;53.478;6.158;2022-11-13T00:36:16;36.33;;;28.03;;
51499;SDS011;39101;53.478;6.158;2022-11-13T00:38:44;37.43;;;28.00;;
51499;SDS011;39101;53.478;6.158;2022-11-13T00:41:10;37.33;;;29.17;;
51499;SDS011;39101;53.478;6.158;2022-11-13T00:43:36;39.03;;;30.87;;
51499;SDS011;39101;53.478;6.158;2022-11-13T00:46:02;37.37;;;30.50;;
51499;SDS011;39101;53.478;6.158;2022-11-13T00:48:28;40.93;;;31.60;;
51499;SDS011;39101;53.478;6.158;2022-11-13T00:50:53;43.30;;;31.87;;
51499;SDS011;39101;53.478;6.158;2022-11-13T00:53:19;41.67;;;30.67;;
51499;SDS011;39101;53.478;6.158;2022-11-13T00:55:45;41.07;;;30.87;;
51499;SDS011;39101;53.478;6.158;2022-11-13T00:58:11;37.77;;;29.60;;
51499;SDS011;39101;53.478;6.158;2022-11-13T01:00:38;40.40;;;29.33;;
51499;SDS011;39101;53.478;6.158;2022-11-13T01:03:04;37.53;;;29.40;;
51499;SDS011;39101;53.478;6.158;2022-11-13T01:05:33;39.17;;;29.20;;
51499;SDS011;39101;53.478;6.158;2022-11-13T01:08:03;40.97;;;29.23;;
51499;SDS011;39101;53.478;6.158;2022-11-13T01:10:29;37.67;;;28.17;;
51499;SDS011;39101;53.478;6.158;2022-11-13T01:12:55;33.00;;;27.17;;
51499;SDS011;39101;53.478;6.158;2022-11-13T01:15:20;34.70;;;26.63;;
51499;SDS011;39101;53.478;6.158;2022-11-13T01:17:46;34.57;;;26.43;;
51499;SDS011;39101;53.478;6.158;2022-11-13T01:20:12;34.97;;;26.57;;
51499;SDS011;39101;53.478;6.158;2022-11-13T01:22:38;33.30;;;25.73;;
51499;SDS011;39101;53.478;6.158;2022-11-13T01:25:04;32.77;;;26.37;;
51499;SDS011;39101;53.478;6.158;2022-11-13T01:27:30;33.77;;;27.00;;
51499;SDS011;39101;53.478;6.158;2022-11-13T01:29:55;33.50;;;27.33;;
51499;SDS011;39101;53.478;6.158;2022-11-13T01:32:21;35.47;;;25.20;;
51499;SDS011;39101;53.478;6.158;2022-11-13T01:34:47;34.93;;;26.60;;
51499;SDS011;39101;53.478;6.158;2022-11-13T01:37:12;33.67;;;25.57;;
51499;SDS011;39101;53.478;6.158;2022-11-13T01:39:38;33.97;;;26.67;;
51499;SDS011;39101;53.478;6.158;2022-11-13T01:42:04;31.60;;;24.60;;
51499;SDS011;39101;53.478;6.158;2022-11-13T01:44:51;32.60;;;26.27;;
51499;SDS011;39101;53.478;6.158;2022-11-13T01:47:19;31.73;;;25.50;;
51499;SDS011;39101;53.478;6.158;2022-11-13T01:49:47;32.80;;;25.63;;
51499;SDS011;39101;53.478;6.158;2022-11-13T01:54:46;30.80;;;25.73;;
51499;SDS011;39101;53.478;6.158;2022-11-13T01:57:15;31.67;;;24.93;;
51499;SDS011;39101;53.478;6.158;2022-11-13T01:59:43;31.17;;;25.00;;
51499;SDS011;39101;53.478;6.158;2022-11-13T02:02:13;30.33;;;24.27;;
51499;SDS011;39101;53.478;6.158;2022-11-13T02:04:38;32.50;;;25.47;;
51499;SDS011;39101;53.478;6.158;2022-11-13T02:07:05;31.10;;;25.07;;
51499;SDS011;39101;53.478;6.158;2022-11-13T02:09:34;33.67;;;25.57;;
51499;SDS011;39101;53.478;6.158;2022-11-13T02:12:04;32.30;;;25.37;;
51499;SDS011;39101;53.478;6.158;2022-11-13T02:14:32;33.63;;;26.03;;
51499;SDS011;39101;53.478;6.158;2022-11-13T02:17:00;32.70;;;24.57;;
51499;SDS011;39101;53.478;6.158;2022-11-13T02:19:30;31.95;;;25.17;;
51499;SDS011;39101;53.478;6.158;2022-11-13T02:27:51;32.27;;;24.43;;
51499;SDS011;39101;53.478;6.158;2022-11-13T02:30:20;33.57;;;25.80;;
51499;SDS011;39101;53.478;6.158;2022-11-13T02:32:47;34.83;;;25.63;;
51499;SDS011;39101;53.478;6.158;2022-11-13T02:35:15;32.60;;;25.50;;
51499;SDS011;39101;53.478;6.158;2022-11-13T02:37:47;33.37;;;26.47;;
51499;SDS011;39101;53.478;6.158;2022-11-13T02:40:12;33.87;;;25.93;;
51499;SDS011;39101;53.478;6.158;2022-11-13T02:42:38;32.13;;;25.73;;
51499;SDS011;39101;53.478;6.158;2022-11-13T02:45:04;36.80;;;27.23;;
51499;SDS011;39101;53.478;6.158;2022-11-13T02:47:31;35.77;;;26.67;;
51499;SDS011;39101;53.478;6.158;2022-11-13T02:49:57;34.80;;;25.97;;
51499;SDS011;39101;53.478;6.158;2022-11-13T02:52:23;30.30;;;25.70;;
51499;SDS011;39101;53.478;6.158;2022-11-13T02:54:49;32.30;;;25.37;;
51499;SDS011;39101;53.478;6.158;2022-11-13T02:57:14;31.97;;;24.23;;
51499;SDS011;39101;53.478;6.158;2022-11-13T02:59:40;33.43;;;25.40;;
51499;SDS011;39101;53.478;6.158;2022-11-13T03:02:06;30.07;;;23.73;;
51499;SDS011;39101;53.478;6.158;2022-11-13T03:04:31;34.03;;;26.30;;
51499;SDS011;39101;53.478;6.158;2022-11-13T03:06:57;32.30;;;26.33;;
51499;SDS011;39101;53.478;6.158;2022-11-13T03:09:22;37.73;;;27.10;;
51499;SDS011;39101;53.478;6.158;2022-11-13T03:11:48;31.90;;;24.77;;
51499;SDS011;39101;53.478;6.158;2022-11-13T03:14:14;36.53;;;25.70;;
51499;SDS011;39101;53.478;6.158;2022-11-13T03:16:40;29.10;;;25.03;;
51499;SDS011;39101;53.478;6.158;2022-11-13T03:19:05;31.47;;;24.23;;
51499;SDS011;39101;53.478;6.158;2022-11-13T03:21:31;33.93;;;24.60;;
51499;SDS011;39101;53.478;6.158;2022-11-13T03:23:57;31.00;;;25.70;;
51499;SDS011;39101;53.478;6.158;2022-11-13T03:26:23;35.70;;;26.07;;
51499;SDS011;39101;53.478;6.158;2022-11-13T03:28:49;29.73;;;24.10;;
51499;SDS011;39101;53.478;6.158;2022-11-13T03:31:14;31.63;;;24.43;;
51499;SDS011;39101;53.478;6.158;2022-11-13T03:33:40;31.90;;;24.23;;
51499;SDS011;39101;53.478;6.158;2022-11-13T03:36:06;34.90;;;28.47;;
51499;SDS011;39101;53.478;6.158;2022-11-13T03:38:32;28.60;;;23.80;;
51499;SDS011;39101;53.478;6.158;2022-11-13T03:40:59;33.07;;;24.27;;
51499;SDS011;39101;53.478;6.158;2022-11-13T03:43:24;30.63;;;24.50;;
51499;SDS011;39101;53.478;6.158;2022-11-13T03:45:50;33.10;;;24.50;;
51499;SDS011;39101;53.478;6.158;2022-11-13T03:48:16;34.03;;;24.63;;
51499;SDS011;39101;53.478;6.158;2022-11-13T03:50:42;30.50;;;24.97;;
51499;SDS011;39101;53.478;6.158;2022-11-13T03:53:10;28.83;;;23.67;;
51499;SDS011;39101;53.478;6.158;2022-11-13T03:55:36;32.77;;;23.87;;
51499;SDS011;39101;53.478;6.158;2022-11-13T03:58:02;31.27;;;24.97;;
51499;SDS011;39101;53.478;6.158;2022-11-13T04:00:28;31.20;;;24.70;;
51499;SDS011;39101;53.478;6.158;2022-11-13T04:02:54;29.67;;;25.43;;
51499;SDS011;39101;53.478;6.158;2022-11-13T04:05:20;31.10;;;25.03;;
51499;SDS011;39101;53.478;6.158;2022-11-13T04:07:46;31.37;;;25.47;;
51499;SDS011;39101;53.478;6.158;2022-11-13T04:10:13;30.07;;;24.67;;
51499;SDS011;39101;53.478;6.158;2022-11-13T04:12:39;32.07;;;24.63;;
51499;SDS011;39101;53.478;6.158;2022-11-13T04:15:05;31.67;;;24.57;;
51499;SDS011;39101;53.478;6.158;2022-11-13T04:17:31;29.73;;;24.23;;
51499;SDS011;39101;53.478;6.158;2022-11-13T04:19:57;31.20;;;24.17;;
51499;SDS011;39101;53.478;6.158;2022-11-13T04:22:22;32.77;;;24.33;;
51499;SDS011;39101;53.478;6.158;2022-11-13T04:24:48;29.27;;;24.33;;
51499;SDS011;39101;53.478;6.158;2022-11-13T04:27:14;30.37;;;24.63;;
51499;SDS011;39101;53.478;6.158;2022-11-13T04:29:40;28.53;;;25.20;;
51499;SDS011;39101;53.478;6.158;2022-11-13T04:32:06;32.77;;;24.27;;
51499;SDS011;39101;53.478;6.158;2022-11-13T04:34:31;31.17;;;24.90;;
51499;SDS011;39101;53.478;6.158;2022-11-13T04:36:57;30.47;;;24.97;;
51499;SDS011;39101;53.478;6.158;2022-11-13T04:39:23;31.17;;;24.40;;
51499;SDS011;39101;53.478;6.158;2022-11-13T04:41:49;30.13;;;24.43;;
51499;SDS011;39101;53.478;6.158;2022-11-13T04:44:33;32.60;;;24.67;;
51499;SDS011;39101;53.478;6.158;2022-11-13T04:46:59;31.47;;;25.00;;
51499;SDS011;39101;53.478;6.158;2022-11-13T04:49:24;31.37;;;24.57;;
51499;SDS011;39101;53.478;6.158;2022-11-13T04:51:50;29.90;;;24.63;;
51499;SDS011;39101;53.478;6.158;2022-11-13T04:54:16;31.30;;;24.67;;
51499;SDS011;39101;53.478;6.158;2022-11-13T04:56:41;32.47;;;24.37;;
51499;SDS011;39101;53.478;6.158;2022-11-13T04:59:07;30.10;;;24.00;;
51499;SDS011;39101;53.478;6.158;2022-11-13T05:01:33;34.37;;;25.23;;
51499;SDS011;39101;53.478;6.158;2022-11-13T05:04:00;32.87;;;25.33;;
51499;SDS011;39101;53.478;6.158;2022-11-13T05:06:25;30.30;;;23.00;;
51499;SDS011;39101;53.478;6.158;2022-11-13T05:08:51;30.97;;;24.10;;
51499;SDS011;39101;53.478;6.158;2022-11-13T05:11:17;29.83;;;24.03;;
51499;SDS011;39101;53.478;6.158;2022-11-13T05:13:43;28.23;;;23.70;;
51499;SDS011;39101;53.478;6.158;2022-11-13T05:16:10;29.63;;;25.13;;
51499;SDS011;39101;53.478;6.158;2022-11-13T05:18:36;29.90;;;24.27;;
51499;SDS011;39101;53.478;6.158;2022-11-13T05:21:04;28.37;;;23.07;;
51499;SDS011;39101;53.478;6.158;2022-11-13T05:23:31;30.87;;;24.70;;
51499;SDS011;39101;53.478;6.158;2022-11-13T05:26:04;30.53;;;23.93;;
51499;SDS011;39101;53.478;6.158;2022-11-13T05:28:34;31.80;;;21.63;;
51499;SDS011;39101;53.478;6.158;2022-11-13T05:33:35;29.37;;;22.57;;
51499;SDS011;39101;53.478;6.158;2022-11-13T05:36:06;28.70;;;23.57;;
51499;SDS011;39101;53.478;6.158;2022-11-13T05:38:38;32.67;;;23.27;;
51499;SDS011;39101;53.478;6.158;2022-11-13T05:41:05;30.83;;;23.37;;
51499;SDS011;39101;53.478;6.158;2022-11-13T05:43:33;30.50;;;22.87;;
51499;SDS011;39101;53.478;6.158;2022-11-13T05:48:30;30.88;;;23.63;;
51499;SDS011;39101;53.478;6.158;2022-11-13T05:51:06;29.47;;;22.67;;
51499;SDS011;39101;53.478;6.158;2022-11-13T05:53:40;27.67;;;22.53;;
51499;SDS011;39101;53.478;6.158;2022-11-13T05:58:41;27.67;;;22.20;;
51499;SDS011;39101;53.478;6.158;2022-11-13T06:03:38;28.07;;;21.90;;
51499;SDS011;39101;53.478;6.158;2022-11-13T06:06:04;29.73;;;21.63;;
51499;SDS011;39101;53.478;6.158;2022-11-13T06:08:32;29.77;;;21.93;;
51499;SDS011;39101;53.478;6.158;2022-11-13T06:10:58;28.57;;;22.20;;
51499;SDS011;39101;53.478;6.158;2022-11-13T06:13:25;26.53;;;21.57;;
51499;SDS011;39101;53.478;6.158;2022-11-13T06:15:51;29.30;;;22.40;;
51499;SDS011;39101;53.478;6.158;2022-11-13T06:18:23;26.87;;;21.83;;
51499;SDS011;39101;53.478;6.158;2022-11-13T06:20:49;27.63;;;21.57;;
51499;SDS011;39101;53.478;6.158;2022-11-13T06:23:14;27.17;;;22.03;;
51499;SDS011;39101;53.478;6.158;2022-11-13T06:25:40;28.27;;;21.50;;
51499;SDS011;39101;53.478;6.158;2022-11-13T06:28:06;28.30;;;21.97;;
51499;SDS011;39101;53.478;6.158;2022-11-13T06:30:32;25.80;;;21.17;;
51499;SDS011;39101;53.478;6.158;2022-11-13T06:32:57;36.73;;;24.43;;
51499;SDS011;39101;53.478;6.158;2022-11-13T06:35:23;25.43;;;20.50;;
51499;SDS011;39101;53.478;6.158;2022-11-13T06:37:49;30.07;;;23.50;;
51499;SDS011;39101;53.478;6.158;2022-11-13T06:40:15;27.23;;;21.67;;
51499;SDS011;39101;53.478;6.158;2022-11-13T06:42:40;27.20;;;21.13;;
51499;SDS011;39101;53.478;6.158;2022-11-13T06:45:06;28.53;;;22.30;;
51499;SDS011;39101;53.478;6.158;2022-11-13T06:47:32;26.07;;;21.17;;
51499;SDS011;39101;53.478;6.158;2022-11-13T06:49:58;25.93;;;20.67;;
51499;SDS011;39101;53.478;6.158;2022-11-13T06:52:24;27.40;;;22.20;;
51499;SDS011;39101;53.478;6.158;2022-11-13T06:54:49;28.17;;;21.23;;
51499;SDS011;39101;53.478;6.158;2022-11-13T06:57:15;24.87;;;21.07;;
51499;SDS011;39101;53.478;6.158;2022-11-13T06:59:40;28.23;;;22.43;;
51499;SDS011;39101;53.478;6.158;2022-11-13T07:02:07;28.33;;;21.73;;
51499;SDS011;39101;53.478;6.158;2022-11-13T07:04:35;27.40;;;21.03;;
51499;SDS011;39101;53.478;6.158;2022-11-13T07:07:01;25.90;;;21.10;;
51499;SDS011;39101;53.478;6.158;2022-11-13T07:09:28;28.27;;;22.70;;
51499;SDS011;39101;53.478;6.158;2022-11-13T07:11:54;26.07;;;20.90;;
51499;SDS011;39101;53.478;6.158;2022-11-13T07:14:20;23.67;;;20.10;;
51499;SDS011;39101;53.478;6.158;2022-11-13T07:16:46;28.43;;;20.93;;
51499;SDS011;39101;53.478;6.158;2022-11-13T07:19:12;24.87;;;20.67;;
51499;SDS011;39101;53.478;6.158;2022-11-13T07:21:37;23.17;;;20.63;;
51499;SDS011;39101;53.478;6.158;2022-11-13T07:24:03;28.03;;;21.73;;
51499;SDS011;39101;53.478;6.158;2022-11-13T07:26:29;24.93;;;19.07;;
51499;SDS011;39101;53.478;6.158;2022-11-13T07:28:55;25.93;;;19.70;;
51499;SDS011;39101;53.478;6.158;2022-11-13T07:31:21;24.63;;;19.53;;
51499;SDS011;39101;53.478;6.158;2022-11-13T07:33:47;23.97;;;19.23;;
51499;SDS011;39101;53.478;6.158;2022-11-13T07:36:14;25.00;;;19.63;;
51499;SDS011;39101;53.478;6.158;2022-11-13T07:38:39;24.40;;;20.00;;
51499;SDS011;39101;53.478;6.158;2022-11-13T07:41:05;27.33;;;20.17;;
51499;SDS011;39101;53.478;6.158;2022-11-13T07:43:32;26.23;;;20.00;;
51499;SDS011;39101;53.478;6.158;2022-11-13T07:45:58;23.27;;;20.50;;
51499;SDS011;39101;53.478;6.158;2022-11-13T07:48:24;27.93;;;19.40;;
51499;SDS011;39101;53.478;6.158;2022-11-13T07:50:54;23.57;;;19.20;;
51499;SDS011;39101;53.478;6.158;2022-11-13T07:53:23;24.50;;;19.67;;
51499;SDS011;39101;53.478;6.158;2022-11-13T07:55:49;25.87;;;19.77;;
51499;SDS011;39101;53.478;6.158;2022-11-13T07:58:14;27.83;;;20.40;;
51499;SDS011;39101;53.478;6.158;2022-11-13T08:00:40;34.03;;;20.73;;
51499;SDS011;39101;53.478;6.158;2022-11-13T08:03:13;27.40;;;19.67;;
51499;SDS011;39101;53.478;6.158;2022-11-13T08:05:40;24.93;;;19.93;;
51499;SDS011;39101;53.478;6.158;2022-11-13T08:08:06;22.57;;;18.80;;
51499;SDS011;39101;53.478;6.158;2022-11-13T08:10:32;25.67;;;19.07;;
51499;SDS011;39101;53.478;6.158;2022-11-13T08:13:08;28.00;;;20.37;;
51499;SDS011;39101;53.478;6.158;2022-11-13T08:15:34;21.40;;;18.00;;
51499;SDS011;39101;53.478;6.158;2022-11-13T08:18:01;25.53;;;19.03;;
51499;SDS011;39101;53.478;6.158;2022-11-13T08:20:28;23.63;;;18.87;;
51499;SDS011;39101;53.478;6.158;2022-11-13T08:22:58;20.63;;;17.10;;
51499;SDS011;39101;53.478;6.158;2022-11-13T08:25:25;21.33;;;18.17;;
51499;SDS011;39101;53.478;6.158;2022-11-13T08:27:52;20.60;;;17.33;;
51499;SDS011;39101;53.478;6.158;2022-11-13T08:30:18;23.40;;;18.37;;
51499;SDS011;39101;53.478;6.158;2022-11-13T08:32:45;25.17;;;17.67;;
51499;SDS011;39101;53.478;6.158;2022-11-13T08:35:12;22.10;;;17.97;;
51499;SDS011;39101;53.478;6.158;2022-11-13T08:37:37;20.43;;;16.53;;
51499;SDS011;39101;53.478;6.158;2022-11-13T08:40:03;20.83;;;17.10;;
51499;SDS011;39101;53.478;6.158;2022-11-13T08:42:29;21.43;;;16.77;;
51499;SDS011;39101;53.478;6.158;2022-11-13T08:44:55;23.27;;;17.60;;
51499;SDS011;39101;53.478;6.158;2022-11-13T08:47:20;21.80;;;17.70;;
51499;SDS011;39101;53.478;6.158;2022-11-13T08:49:46;21.40;;;17.20;;
51499;SDS011;39101;53.478;6.158;2022-11-13T08:52:11;23.90;;;18.77;;
51499;SDS011;39101;53.478;6.158;2022-11-13T08:54:38;22.27;;;16.93;;
51499;SDS011;39101;53.478;6.158;2022-11-13T08:57:04;21.00;;;18.07;;
51499;SDS011;39101;53.478;6.158;2022-11-13T08:59:29;22.83;;;18.07;;
51499;SDS011;39101;53.478;6.158;2022-11-13T09:01:55;21.83;;;16.50;;
51499;SDS011;39101;53.478;6.158;2022-11-13T09:04:26;23.07;;;18.33;;
51499;SDS011;39101;53.478;6.158;2022-11-13T09:06:52;22.93;;;17.20;;
51499;SDS011;39101;53.478;6.158;2022-11-13T09:09:18;21.13;;;17.67;;
51499;SDS011;39101;53.478;6.158;2022-11-13T09:11:44;23.13;;;17.70;;
51499;SDS011;39101;53.478;6.158;2022-11-13T09:14:10;22.20;;;17.87;;
51499;SDS011;39101;53.478;6.158;2022-11-13T09:16:36;22.10;;;17.47;;
51499;SDS011;39101;53.478;6.158;2022-11-13T09:19:02;22.23;;;17.53;;
51499;SDS011;39101;53.478;6.158;2022-11-13T09:21:28;18.77;;;16.67;;
51499;SDS011;39101;53.478;6.158;2022-11-13T09:23:54;20.50;;;16.87;;
51499;SDS011;39101;53.478;6.158;2022-11-13T09:26:20;18.37;;;15.83;;
51499;SDS011;39101;53.478;6.158;2022-11-13T09:28:46;19.37;;;15.17;;
51499;SDS011;39101;53.478;6.158;2022-11-13T09:31:12;20.60;;;15.50;;
51499;SDS011;39101;53.478;6.158;2022-11-13T09:33:37;18.63;;;14.50;;
51499;SDS011;39101;53.478;6.158;2022-11-13T09:36:08;17.73;;;14.70;;
51499;SDS011;39101;53.478;6.158;2022-11-13T09:38:39;17.23;;;15.03;;
51499;SDS011;39101;53.478;6.158;2022-11-13T09:44:01;19.30;;;15.97;;
51499;SDS011;39101;53.478;6.158;2022-11-13T09:51:40;19.23;;;16.43;;
51499;SDS011;39101;53.478;6.158;2022-11-13T09:54:15;18.03;;;15.00;;
51499;SDS011;39101;53.478;6.158;2022-11-13T09:59:12;27.97;;;16.77;;
51499;SDS011;39101;53.478;6.158;2022-11-13T10:04:48;18.50;;;15.53;;
51499;SDS011;39101;53.478;6.158;2022-11-13T10:10:12;19.70;;;15.70;;
51499;SDS011;39101;53.478;6.158;2022-11-13T10:12:40;16.80;;;15.00;;
51499;SDS011;39101;53.478;6.158;2022-11-13T10:15:08;19.07;;;15.47;;
51499;SDS011;39101;53.478;6.158;2022-11-13T10:17:36;17.50;;;14.17;;
51499;SDS011;39101;53.478;6.158;2022-11-13T10:20:14;21.97;;;14.30;;
51499;SDS011;39101;53.478;6.158;2022-11-13T10:22:48;21.37;;;14.53;;
51499;SDS011;39101;53.478;6.158;2022-11-13T10:25:37;18.87;;;15.40;;
51499;SDS011;39101;53.478;6.158;2022-11-13T10:28:10;16.77;;;13.30;;
51499;SDS011;39101;53.478;6.158;2022-11-13T10:30:39;15.37;;;13.77;;
51499;SDS011;39101;53.478;6.158;2022-11-13T10:33:06;16.05;;;13.10;;
51499;SDS011;39101;53.478;6.158;2022-11-13T10:35:41;17.17;;;13.67;;
51499;SDS011;39101;53.478;6.158;2022-11-13T10:38:43;17.47;;;13.17;;
51499;SDS011;39101;53.478;6.158;2022-11-13T10:41:19;18.07;;;14.00;;
51499;SDS011;39101;53.478;6.158;2022-11-13T10:44:05;16.95;;;13.65;;
51499;SDS011;39101;53.478;6.158;2022-11-13T10:46:41;18.57;;;14.07;;
51499;SDS011;39101;53.478;6.158;2022-11-13T10:49:25;15.38;;;12.50;;
51499;SDS011;39101;53.478;6.158;2022-11-13T10:51:55;19.55;;;14.82;;
51499;SDS011;39101;53.478;6.158;2022-11-13T10:54:27;16.38;;;13.27;;
51499;SDS011;39101;53.478;6.158;2022-11-13T10:57:04;14.82;;;13.25;;
51499;SDS011;39101;53.478;6.158;2022-11-13T10:59:43;14.43;;;12.38;;
51499;SDS011;39101;53.478;6.158;2022-11-13T11:04:42;14.63;;;11.60;;
51499;SDS011;39101;53.478;6.158;2022-11-13T11:07:26;15.90;;;11.90;;
51499;SDS011;39101;53.478;6.158;2022-11-13T11:09:51;14.57;;;11.60;;
51499;SDS011;39101;53.478;6.158;2022-11-13T11:12:26;15.30;;;11.32;;
51499;SDS011;39101;53.478;6.158;2022-11-13T11:17:21;16.38;;;11.38;;
51499;SDS011;39101;53.478;6.158;2022-11-13T11:22:48;18.50;;;11.43;;
51499;SDS011;39101;53.478;6.158;2022-11-13T11:25:42;14.77;;;11.50;;
51499;SDS011;39101;53.478;6.158;2022-11-13T11:28:21;14.88;;;11.50;;
51499;SDS011;39101;53.478;6.158;2022-11-13T11:33:52;14.73;;;10.98;;
51499;SDS011;39101;53.478;6.158;2022-11-13T11:36:30;12.98;;;10.43;;
51499;SDS011;39101;53.478;6.158;2022-11-13T11:41:44;15.20;;;10.90;;
51499;SDS011;39101;53.478;6.158;2022-11-13T11:44:15;13.93;;;10.90;;
51499;SDS011;39101;53.478;6.158;2022-11-13T11:46:46;15.77;;;11.52;;
51499;SDS011;39101;53.478;6.158;2022-11-13T11:49:12;17.70;;;11.85;;
51499;SDS011;39101;53.478;6.158;2022-11-13T11:51:52;13.90;;;11.57;;
51499;SDS011;39101;53.478;6.158;2022-11-13T11:54:49;15.45;;;11.48;;
51499;SDS011;39101;53.478;6.158;2022-11-13T12:00:11;16.27;;;11.65;;
51499;SDS011;39101;53.478;6.158;2022-11-13T12:10:33;13.80;;;10.68;;
51499;SDS011;39101;53.478;6.158;2022-11-13T12:15:48;13.60;;;10.90;;
51499;SDS011;39101;53.478;6.158;2022-11-13T12:31:58;15.27;;;11.85;;
51499;SDS011;39101;53.478;6.158;2022-11-13T12:34:38;16.67;;;11.73;;
51499;SDS011;39101;53.478;6.158;2022-11-13T12:37:25;15.23;;;11.50;;
51499;SDS011;39101;53.478;6.158;2022-11-13T12:40:04;17.63;;;12.95;;
51499;SDS011;39101;53.478;6.158;2022-11-13T12:48:09;15.60;;;12.73;;
51499;SDS011;39101;53.478;6.158;2022-11-13T12:50:40;14.68;;;11.77;;
51499;SDS011;39101;53.478;6.158;2022-11-13T12:53:10;18.25;;;12.38;;
51499;SDS011;39101;53.478;6.158;2022-11-13T12:55:38;15.32;;;12.02;;
51499;SDS011;39101;53.478;6.158;2022-11-13T13:00:52;14.93;;;11.98;;
51499;SDS011;39101;53.478;6.158;2022-11-13T13:03:53;14.88;;;12.43;;
51499;SDS011;39101;53.478;6.158;2022-11-13T13:06:48;15.63;;;12.80;;
51499;SDS011;39101;53.478;6.158;2022-11-13T13:17:32;12.88;;;10.98;;
51499;SDS011;39101;53.478;6.158;2022-11-13T13:20:03;15.15;;;12.25;;
51499;SDS011;39101;53.478;6.158;2022-11-13T13:22:55;16.70;;;12.30;;
51499;SDS011;39101;53.478;6.158;2022-11-13T13:27:58;16.05;;;12.35;;
51499;SDS011;39101;53.478;6.158;2022-11-13T13:30:26;14.52;;;11.50;;
51499;SDS011;39101;53.478;6.158;2022-11-13T13:32:58;15.20;;;12.00;;
51499;SDS011;39101;53.478;6.158;2022-11-13T13:35:44;15.60;;;12.37;;
51499;SDS011;39101;53.478;6.158;2022-11-13T13:38:35;14.45;;;11.75;;
51499;SDS011;39101;53.478;6.158;2022-11-13T13:44:30;16.25;;;12.68;;
51499;SDS011;39101;53.478;6.158;2022-11-13T13:46:59;16.25;;;12.63;;
51499;SDS011;39101;53.478;6.158;2022-11-13T13:49:30;18.75;;;12.73;;
51499;SDS011;39101;53.478;6.158;2022-11-13T13:51:56;17.20;;;12.90;;
51499;SDS011;39101;53.478;6.158;2022-11-13T13:54:24;17.83;;;12.27;;
51499;SDS011;39101;53.478;6.158;2022-11-13T13:56:54;16.00;;;13.13;;
51499;SDS011;39101;53.478;6.158;2022-11-13T13:59:28;18.40;;;13.30;;
51499;SDS011;39101;53.478;6.158;2022-11-13T14:02:00;14.52;;;12.27;;
51499;SDS011;39101;53.478;6.158;2022-11-13T14:04:29;15.23;;;12.07;;
51499;SDS011;39101;53.478;6.158;2022-11-13T14:06:59;15.50;;;11.88;;
51499;SDS011;39101;53.478;6.158;2022-11-13T14:09:28;16.98;;;13.65;;
51499;SDS011;39101;53.478;6.158;2022-11-13T14:12:04;14.93;;;12.77;;
51499;SDS011;39101;53.478;6.158;2022-11-13T14:14:40;15.55;;;12.57;;
51499;SDS011;39101;53.478;6.158;2022-11-13T14:17:09;17.13;;;12.18;;
51499;SDS011;39101;53.478;6.158;2022-11-13T14:19:36;14.23;;;11.18;;
51499;SDS011;39101;53.478;6.158;2022-11-13T14:22:02;16.30;;;12.68;;
51499;SDS011;39101;53.478;6.158;2022-11-13T14:24:33;15.20;;;11.60;;
51499;SDS011;39101;53.478;6.158;2022-11-13T14:27:09;14.57;;;12.45;;
51499;SDS011;39101;53.478;6.158;2022-11-13T14:29:46;15.35;;;10.82;;
51499;SDS011;39101;53.478;6.158;2022-11-13T14:32:24;15.75;;;12.30;;
51499;SDS011;39101;53.478;6.158;2022-11-13T14:34:54;15.52;;;11.77;;
51499;SDS011;39101;53.478;6.158;2022-11-13T14:39:51;14.30;;;12.15;;
51499;SDS011;39101;53.478;6.158;2022-11-13T14:42:27;16.38;;;12.70;;
51499;SDS011;39101;53.478;6.158;2022-11-13T14:45:50;14.43;;;12.02;;
51499;SDS011;39101;53.478;6.158;2022-11-13T14:47:55;16.77;;;12.82;;
51499;SDS011;39101;53.478;6.158;2022-11-13T14:50:46;17.05;;;12.02;;
51499;SDS011;39101;53.478;6.158;2022-11-13T14:56:07;16.27;;;12.60;;
51499;SDS011;39101;53.478;6.158;2022-11-13T15:01:25;16.08;;;12.70;;
51499;SDS011;39101;53.478;6.158;2022-11-13T15:03:51;17.75;;;13.07;;
51499;SDS011;39101;53.478;6.158;2022-11-13T15:06:18;15.32;;;12.13;;
51499;SDS011;39101;53.478;6.158;2022-11-13T15:08:45;17.77;;;13.20;;
51499;SDS011;39101;53.478;6.158;2022-11-13T15:11:16;17.27;;;13.68;;
51499;SDS011;39101;53.478;6.158;2022-11-13T15:13:43;15.80;;;12.68;;
51499;SDS011;39101;53.478;6.158;2022-11-13T15:16:14;16.75;;;13.05;;
51499;SDS011;39101;53.478;6.158;2022-11-13T15:18:43;16.27;;;13.55;;
51499;SDS011;39101;53.478;6.158;2022-11-13T15:21:15;16.77;;;13.35;;
51499;SDS011;39101;53.478;6.158;2022-11-13T15:23:41;17.50;;;12.90;;
51499;SDS011;39101;53.478;6.158;2022-11-13T15:26:08;17.55;;;12.55;;
51499;SDS011;39101;53.478;6.158;2022-11-13T15:28:35;16.95;;;13.00;;
51499;SDS011;39101;53.478;6.158;2022-11-13T15:31:01;19.23;;;13.88;;
51499;SDS011;39101;53.478;6.158;2022-11-13T15:33:27;16.15;;;13.55;;
51499;SDS011;39101;53.478;6.158;2022-11-13T15:35:53;18.55;;;13.88;;
51499;SDS011;39101;53.478;6.158;2022-11-13T15:38:18;17.75;;;14.43;;
51499;SDS011;39101;53.478;6.158;2022-11-13T15:40:44;18.73;;;14.73;;
51499;SDS011;39101;53.478;6.158;2022-11-13T15:43:17;17.48;;;12.40;;
51499;SDS011;39101;53.478;6.158;2022-11-13T15:45:46;15.40;;;12.90;;
51499;SDS011;39101;53.478;6.158;2022-11-13T15:48:11;14.88;;;13.10;;
51499;SDS011;39101;53.478;6.158;2022-11-13T15:50:37;14.57;;;11.98;;
51499;SDS011;39101;53.478;6.158;2022-11-13T15:53:04;16.90;;;13.23;;
51499;SDS011;39101;53.478;6.158;2022-11-13T15:55:32;14.80;;;12.40;;
51499;SDS011;39101;53.478;6.158;2022-11-13T15:57:58;15.82;;;12.38;;
51499;SDS011;39101;53.478;6.158;2022-11-13T16:00:25;15.80;;;12.32;;
51499;SDS011;39101;53.478;6.158;2022-11-13T16:02:52;14.95;;;12.90;;
51499;SDS011;39101;53.478;6.158;2022-11-13T16:05:20;18.20;;;12.10;;
51499;SDS011;39101;53.478;6.158;2022-11-13T16:07:53;17.23;;;13.82;;
51499;SDS011;39101;53.478;6.158;2022-11-13T16:10:20;17.13;;;12.45;;
51499;SDS011;39101;53.478;6.158;2022-11-13T16:12:46;20.92;;;14.60;;
51499;SDS011;39101;53.478;6.158;2022-11-13T16:15:16;16.58;;;13.10;;
51499;SDS011;39101;53.478;6.158;2022-11-13T16:17:46;16.67;;;12.52;;